Terminal Aerodrome Forecast
Issued by NWS

Home | Current Version | Previous Version | Text Only | Print | Product List | Glossary On
Versions: 1 2 3 4 5 6 7 8 9 10 11 12 13
000
FTUS44 KJAN 141100
TAFHKS
TAF
KHKS 141129Z 1412/1512 19006KT P6SM SCT030 SCT050
     FM142000 22007KT P6SM VCTS BKN050CB
     FM150100 17006KT P6SM SCT250
     FM151100 21003KT P6SM VCSH BKN050=

USA.gov is the U.S. government's official web portal to all federal, state and local government web resources and services.